createdAt,value
2022-07-29T00:01:20.342Z,58.79
2022-07-29T00:03:49.025Z,59.09
2022-07-29T00:06:17.664Z,59.16
2022-07-29T00:08:45.478Z,59.39
2022-07-29T00:11:13.496Z,59.39
2022-07-29T00:13:41.382Z,59.87
2022-07-29T00:16:09.214Z,59.85
2022-07-29T00:18:37.083Z,60.10
2022-07-29T00:21:04.989Z,60.26
2022-07-29T00:23:36.714Z,60.64
2022-07-29T00:26:05.046Z,60.89
2022-07-29T00:28:32.846Z,61.16
2022-07-29T00:31:00.751Z,61.90
2022-07-29T00:33:30.009Z,62.22
2022-07-29T00:35:57.937Z,62.72
2022-07-29T00:38:25.834Z,62.95
2022-07-29T00:40:53.715Z,63.38
2022-07-29T00:43:22.114Z,64.00
2022-07-29T00:45:50.013Z,64.34
2022-07-29T00:48:17.881Z,64.73
2022-07-29T00:50:45.741Z,65.33
2022-07-29T00:53:13.779Z,65.58
2022-07-29T00:55:41.878Z,65.92
2022-07-29T00:58:09.974Z,66.44
2022-07-29T01:00:38.055Z,66.71
2022-07-29T01:03:06.033Z,67.07
2022-07-29T01:05:50.651Z,67.53
2022-07-29T01:08:20.525Z,67.78
2022-07-29T01:10:50.304Z,68.49
2022-07-29T01:13:19.018Z,68.92
2022-07-29T01:15:55.426Z,69.08
2022-07-29T01:18:45.496Z,69.57
2022-07-29T01:21:46.058Z,70.04
2022-07-29T01:24:41.040Z,70.30
2022-07-29T01:28:14.541Z,70.83
2022-07-29T01:30:45.460Z,71.49
2022-07-29T01:33:38.149Z,71.86
2022-07-29T01:36:14.228Z,72.28
2022-07-29T01:38:50.335Z,72.68
2022-07-29T01:41:21.419Z,73.11
2022-07-29T01:44:19.725Z,73.43
2022-07-29T01:46:55.073Z,73.67
2022-07-29T01:49:31.649Z,73.79
2022-07-29T01:52:06.646Z,74.14
2022-07-29T01:54:49.792Z,74.43
2022-07-29T01:57:21.886Z,74.92
2022-07-29T01:59:51.961Z,75.06
2022-07-29T02:02:22.838Z,75.47
2022-07-29T02:04:53.178Z,75.76
2022-07-29T02:07:24.730Z,75.84
2022-07-29T02:09:54.662Z,76.15
2022-07-29T02:12:24.623Z,76.55
2022-07-29T02:14:56.682Z,76.73
2022-07-29T02:17:33.958Z,76.98
2022-07-29T02:20:06.057Z,77.10
2022-07-29T02:22:38.023Z,77.22
2022-07-29T02:25:14.213Z,77.73
2022-07-29T02:27:44.140Z,77.78
2022-07-29T02:30:13.683Z,77.57
2022-07-29T02:32:43.506Z,77.71
2022-07-29T02:35:15.144Z,78.08
2022-07-29T02:37:46.498Z,78.04
2022-07-29T02:40:16.184Z,78.17
2022-07-29T02:42:47.338Z,78.19
2022-07-29T02:45:15.177Z,78.32
2022-07-29T02:47:48.599Z,78.52
2022-07-29T02:50:33.572Z,78.75
2022-07-29T02:53:27.514Z,79.09
2022-07-29T02:56:11.578Z,79.19
2022-07-29T02:58:54.540Z,79.36
2022-07-29T03:01:26.021Z,79.47
2022-07-29T03:03:55.661Z,79.48
2022-07-29T03:06:38.038Z,79.74
2022-07-29T03:09:13.036Z,79.74
2022-07-29T03:11:49.432Z,79.66
2022-07-29T03:14:20.972Z,80.00
2022-07-29T03:16:51.951Z,80.12
2022-07-29T03:19:21.297Z,80.21
2022-07-29T03:21:49.777Z,80.14
2022-07-29T03:24:34.134Z,80.13
2022-07-29T03:27:04.865Z,80.27
2022-07-29T03:29:34.715Z,80.46
2022-07-29T03:32:07.871Z,80.40
2022-07-29T03:34:38.754Z,80.58
2022-07-29T03:37:08.719Z,80.48
2022-07-29T03:39:41.976Z,80.49
2022-07-29T03:42:14.823Z,80.09
2022-07-29T03:44:45.130Z,80.14
2022-07-29T03:47:15.901Z,80.13
2022-07-29T03:49:47.471Z,80.04
2022-07-29T03:52:15.859Z,79.96
2022-07-29T03:54:44.203Z,79.73
2022-07-29T03:57:13.381Z,79.67
2022-07-29T03:59:42.200Z,79.70
2022-07-29T04:02:14.732Z,79.47
2022-07-29T04:04:43.444Z,79.35
2022-07-29T04:07:16.131Z,79.03
2022-07-29T04:09:44.285Z,78.53
2022-07-29T04:12:12.162Z,78.13
2022-07-29T04:14:40.014Z,77.77
2022-07-29T04:17:07.822Z,77.85
2022-07-29T04:19:35.647Z,77.61
2022-07-29T04:22:03.648Z,77.60
2022-07-29T04:24:31.591Z,77.31
2022-07-29T04:26:59.415Z,77.14
2022-07-29T04:29:27.153Z,77.21
2022-07-29T04:31:54.953Z,76.94
2022-07-29T04:34:22.821Z,76.66
2022-07-29T04:36:57.183Z,76.28
2022-07-29T04:39:25.540Z,76.21
2022-07-29T04:41:57.592Z,75.79
2022-07-29T04:44:28.767Z,75.50
2022-07-29T04:46:58.546Z,75.54
2022-07-29T04:49:26.453Z,75.13
2022-07-29T04:51:54.547Z,74.68
2022-07-29T04:54:22.571Z,74.55
2022-07-29T04:56:50.466Z,74.45
2022-07-29T04:59:18.383Z,74.23
2022-07-29T05:01:46.266Z,73.93
2022-07-29T05:04:14.361Z,73.84
2022-07-29T05:06:42.475Z,73.53
2022-07-29T05:09:10.263Z,73.30
2022-07-29T05:11:37.967Z,73.10
2022-07-29T05:14:05.989Z,72.62
2022-07-29T05:16:34.483Z,72.32
2022-07-29T05:19:02.405Z,71.95
2022-07-29T05:21:30.173Z,71.97
2022-07-29T05:23:58.560Z,71.59
2022-07-29T05:26:26.294Z,71.13
2022-07-29T05:28:55.587Z,70.64
2022-07-29T05:31:25.587Z,70.55
2022-07-29T05:33:53.329Z,70.26
2022-07-29T05:36:21.027Z,69.99
2022-07-29T05:38:48.905Z,69.77
2022-07-29T05:41:16.693Z,69.39
2022-07-29T05:43:44.483Z,69.01
2022-07-29T05:46:12.362Z,68.80
2022-07-29T05:48:40.637Z,68.48
2022-07-29T05:51:08.405Z,68.28
2022-07-29T05:53:36.384Z,67.77
2022-07-29T05:56:08.486Z,67.56
2022-07-29T05:58:37.253Z,67.15
2022-07-29T06:01:05.904Z,67.13
2022-07-29T06:03:33.920Z,66.29
2022-07-29T06:06:01.725Z,65.89
2022-07-29T06:08:29.605Z,65.54
2022-07-29T06:10:57.507Z,65.38
2022-07-29T06:13:25.401Z,64.47
2022-07-29T06:15:53.299Z,63.69
2022-07-29T06:18:24.667Z,63.06
2022-07-29T06:20:54.601Z,62.66
2022-07-29T06:23:22.772Z,62.18
2022-07-29T06:25:50.617Z,61.56
2022-07-29T06:28:18.425Z,61.42
2022-07-29T06:30:46.317Z,60.92
2022-07-29T06:33:19.792Z,60.13
2022-07-29T06:35:53.322Z,60.24
2022-07-29T06:38:33.814Z,59.66
2022-07-29T06:41:11.036Z,58.90
2022-07-29T06:43:52.153Z,58.80
2022-07-29T06:46:23.822Z,58.52
2022-07-29T06:48:53.374Z,58.83
2022-07-29T06:51:23.120Z,58.19
2022-07-29T06:53:59.700Z,57.72
2022-07-29T06:56:38.927Z,56.46
2022-07-29T06:59:13.332Z,54.44
2022-07-29T07:01:44.449Z,53.71
2022-07-29T07:04:14.738Z,53.07
2022-07-29T07:06:43.028Z,52.98
2022-07-29T07:09:10.839Z,52.23
2022-07-29T07:11:38.601Z,51.46
2022-07-29T07:14:06.352Z,49.93
2022-07-29T07:16:35.670Z,50.08
2022-07-29T07:19:03.798Z,49.69
2022-07-29T07:21:31.631Z,48.53
2022-07-29T07:24:00.550Z,47.54
2022-07-29T07:26:28.864Z,47.90
2022-07-29T07:28:56.700Z,47.49
2022-07-29T07:31:24.595Z,47.41
2022-07-29T07:33:54.505Z,47.03
2022-07-29T07:36:23.661Z,46.85
2022-07-29T07:38:51.598Z,47.02
2022-07-29T07:41:19.555Z,47.11
2022-07-29T07:43:47.664Z,47.98
2022-07-29T07:46:16.338Z,47.55
2022-07-29T07:48:44.466Z,46.28
2022-07-29T07:51:12.607Z,46.28
2022-07-29T07:53:40.439Z,46.40
2022-07-29T07:56:10.851Z,46.80
2022-07-29T07:58:40.101Z,46.25
2022-07-29T08:01:09.912Z,46.21
2022-07-29T08:03:38.576Z,46.07
2022-07-29T08:06:07.606Z,46.10
2022-07-29T08:08:36.465Z,46.37
2022-07-29T08:11:09.057Z,45.90
2022-07-29T08:13:39.083Z,46.29
2022-07-29T08:16:12.996Z,46.18
2022-07-29T08:18:42.836Z,45.85
2022-07-29T08:21:10.887Z,45.95
2022-07-29T08:23:57.745Z,45.96
2022-07-29T08:26:26.713Z,45.81
2022-07-29T08:28:54.953Z,46.52
2022-07-29T08:31:22.820Z,45.70
2022-07-29T08:33:50.772Z,45.23
2022-07-29T08:36:18.865Z,44.46
2022-07-29T08:38:46.820Z,44.04
2022-07-29T08:41:14.708Z,43.94
2022-07-29T08:43:43.054Z,43.68
2022-07-29T08:46:11.435Z,43.86
2022-07-29T08:48:40.307Z,43.87
2022-07-29T08:51:13.693Z,44.35
2022-07-29T08:53:44.865Z,45.23
2022-07-29T08:56:23.062Z,45.61
2022-07-29T08:58:52.302Z,44.69
2022-07-29T09:01:35.182Z,44.56
2022-07-29T09:04:09.492Z,46.09
2022-07-29T09:06:40.234Z,46.75
2022-07-29T09:09:09.570Z,50.46
2022-07-29T09:11:38.974Z,46.91
2022-07-29T09:14:07.025Z,46.11
2022-07-29T09:17:08.721Z,46.71
2022-07-29T09:19:45.410Z,44.16
2022-07-29T09:22:31.270Z,44.72
2022-07-29T09:24:59.070Z,43.10
2022-07-29T09:27:27.606Z,44.18
2022-07-29T09:30:04.840Z,41.38
2022-07-29T09:32:54.390Z,44.21
2022-07-29T09:35:25.698Z,43.26
2022-07-29T09:37:54.382Z,41.61
2022-07-29T09:40:29.086Z,41.41
2022-07-29T09:42:58.258Z,41.84
2022-07-29T09:45:35.833Z,42.80
2022-07-29T09:48:19.129Z,44.13
2022-07-29T09:50:50.532Z,48.37
2022-07-29T09:53:39.114Z,48.96
2022-07-29T09:56:07.185Z,42.96
2022-07-29T09:58:35.626Z,44.07
2022-07-29T10:01:04.886Z,44.24
2022-07-29T10:03:33.111Z,43.17
2022-07-29T10:06:10.778Z,41.67
2022-07-29T10:08:39.103Z,40.83
2022-07-29T10:11:16.327Z,41.66
2022-07-29T10:13:46.917Z,46.22
2022-07-29T10:16:16.658Z,43.32
2022-07-29T10:18:47.713Z,43.16
2022-07-29T10:21:35.317Z,42.07
2022-07-29T10:24:07.056Z,41.73
2022-07-29T10:26:43.659Z,41.15
2022-07-29T10:29:11.536Z,39.15
2022-07-29T10:32:05.580Z,40.85
2022-07-29T10:35:22.670Z,39.31
2022-07-29T10:38:05.291Z,36.34
2022-07-29T10:41:32.003Z,36.54
2022-07-29T10:44:17.106Z,39.02
2022-07-29T10:46:47.754Z,35.69
2022-07-29T10:49:18.696Z,35.92
2022-07-29T10:52:11.502Z,34.42
2022-07-29T10:54:52.013Z,35.11
2022-07-29T10:57:53.341Z,34.53
2022-07-29T11:00:16.945Z,34.63
2022-07-29T11:02:49.466Z,34.01
2022-07-29T11:05:20.476Z,33.91
2022-07-29T11:08:20.268Z,33.70
2022-07-29T11:11:19.659Z,34.25
2022-07-29T11:13:56.957Z,33.10
2022-07-29T11:16:25.593Z,32.97
2022-07-29T11:19:15.681Z,32.40
2022-07-29T11:24:39.655Z,31.57
2022-07-29T11:27:23.196Z,31.89
2022-07-29T11:30:04.650Z,32.26
2022-07-29T11:32:48.430Z,32.50
2022-07-29T11:35:37.026Z,32.16
2022-07-29T11:38:28.624Z,32.42
2022-07-29T11:41:31.743Z,32.27
2022-07-29T11:44:01.381Z,32.62
2022-07-29T11:46:53.954Z,32.02
2022-07-29T11:49:32.182Z,30.26
2022-07-29T11:52:04.920Z,31.48
2022-07-29T11:54:52.124Z,30.16
2022-07-29T11:57:36.170Z,30.88
2022-07-29T12:00:14.664Z,31.49
2022-07-29T12:02:48.704Z,29.84
2022-07-29T12:05:35.886Z,30.37
2022-07-29T12:08:12.677Z,30.55
2022-07-29T12:10:43.810Z,29.13
2022-07-29T12:13:13.766Z,28.67
2022-07-29T12:15:46.805Z,29.46
2022-07-29T12:18:19.044Z,30.42
2022-07-29T12:20:48.820Z,29.16
2022-07-29T12:23:17.408Z,29.15
2022-07-29T12:25:49.874Z,27.52
2022-07-29T12:28:26.830Z,26.86
2022-07-29T12:30:55.625Z,27.23
2022-07-29T12:33:30.550Z,25.82
2022-07-29T12:36:06.706Z,26.30
2022-07-29T12:38:37.998Z,27.20
2022-07-29T12:41:05.829Z,27.88
2022-07-29T12:43:33.768Z,27.70
2022-07-29T12:46:16.098Z,28.19
2022-07-29T12:48:44.768Z,28.89
2022-07-29T12:51:15.192Z,30.02
2022-07-29T12:54:11.390Z,30.11
2022-07-29T12:56:43.512Z,29.18
2022-07-29T12:59:23.178Z,29.27
2022-07-29T13:01:53.120Z,30.49
2022-07-29T13:04:30.182Z,30.50
2022-07-29T13:07:10.343Z,29.98
2022-07-29T13:09:44.501Z,29.80
2022-07-29T13:12:14.702Z,30.44
2022-07-29T13:14:46.325Z,30.11
2022-07-29T13:17:21.735Z,31.20
2022-07-29T13:20:10.410Z,31.78
2022-07-29T13:22:40.838Z,30.42
2022-07-29T13:25:10.716Z,29.48
2022-07-29T13:27:40.697Z,29.68
2022-07-29T13:30:10.722Z,28.74
2022-07-29T13:32:38.675Z,28.13
2022-07-29T13:35:09.475Z,27.64
2022-07-29T13:37:40.480Z,28.32
2022-07-29T13:40:10.857Z,28.87
2022-07-29T13:42:39.745Z,29.31
2022-07-29T13:45:09.117Z,29.89
2022-07-29T13:47:37.798Z,29.96
2022-07-29T13:50:09.000Z,30.22
2022-07-29T13:52:39.122Z,30.23
2022-07-29T13:55:09.157Z,29.40
2022-07-29T13:57:37.078Z,28.41
2022-07-29T14:00:05.568Z,28.06
2022-07-29T14:02:36.190Z,27.65
2022-07-29T14:05:08.212Z,27.41
2022-07-29T14:07:40.057Z,27.61
2022-07-29T14:10:08.947Z,28.92
2022-07-29T14:12:37.247Z,29.58
2022-07-29T14:15:05.845Z,30.50
2022-07-29T14:17:33.566Z,30.73
2022-07-29T14:20:02.008Z,31.18
2022-07-29T14:22:30.380Z,30.05
2022-07-29T14:24:58.163Z,30.48
2022-07-29T14:27:37.420Z,30.93
2022-07-29T14:30:07.859Z,30.40
2022-07-29T14:32:35.662Z,29.55
2022-07-29T14:35:04.769Z,28.38
2022-07-29T14:37:40.234Z,27.76
2022-07-29T14:40:10.764Z,26.70
2022-07-29T14:42:39.326Z,27.20
2022-07-29T14:45:10.073Z,27.77
2022-07-29T14:47:39.573Z,27.64
2022-07-29T14:50:08.115Z,28.04
2022-07-29T14:52:36.297Z,27.90
2022-07-29T14:55:05.844Z,28.86
2022-07-29T14:57:48.477Z,29.04
2022-07-29T15:00:17.339Z,29.00
2022-07-29T15:03:01.264Z,28.44
2022-07-29T15:05:32.241Z,26.33
2022-07-29T15:08:00.735Z,25.81
2022-07-29T15:10:28.918Z,25.89
2022-07-29T15:12:58.113Z,27.19
2022-07-29T15:15:26.567Z,28.31
2022-07-29T15:17:54.445Z,28.06
2022-07-29T15:20:22.424Z,28.12
2022-07-29T15:22:50.323Z,28.58
2022-07-29T15:25:18.345Z,29.71
2022-07-29T15:27:48.806Z,29.90
2022-07-29T15:30:32.598Z,29.68
2022-07-29T15:33:05.317Z,30.40
2022-07-29T15:35:33.469Z,30.32
2022-07-29T15:38:09.412Z,30.67
2022-07-29T15:40:42.157Z,30.74
2022-07-29T15:43:10.289Z,30.20
2022-07-29T15:45:41.068Z,30.28
2022-07-29T15:48:13.252Z,30.41
2022-07-29T15:50:43.214Z,29.75
2022-07-29T15:53:15.247Z,30.23
2022-07-29T15:55:43.049Z,30.14
2022-07-29T15:58:12.371Z,30.76
2022-07-29T16:00:40.329Z,30.20
2022-07-29T16:03:08.410Z,30.84
2022-07-29T16:05:36.293Z,30.67
2022-07-29T16:08:05.837Z,30.73
2022-07-29T16:10:34.208Z,30.71
2022-07-29T16:13:02.002Z,30.41
2022-07-29T16:15:29.838Z,30.12
2022-07-29T16:17:57.593Z,29.71
2022-07-29T16:20:25.445Z,30.00
2022-07-29T16:22:54.474Z,30.29
2022-07-29T16:25:38.317Z,30.13
2022-07-29T16:28:10.991Z,30.60
2022-07-29T16:30:38.798Z,30.75
2022-07-29T16:33:08.441Z,30.81
2022-07-29T16:35:40.185Z,31.57
2022-07-29T16:38:08.148Z,31.85
2022-07-29T16:40:35.885Z,32.18
2022-07-29T16:43:03.748Z,32.79
2022-07-29T16:45:31.596Z,32.98
2022-07-29T16:48:15.252Z,33.56
2022-07-29T16:50:46.245Z,33.22
2022-07-29T16:53:14.075Z,33.09
2022-07-29T16:55:42.665Z,33.61
2022-07-29T16:58:11.595Z,33.87
2022-07-29T17:00:39.596Z,33.68
2022-07-29T17:03:07.636Z,33.69
2022-07-29T17:05:50.428Z,33.60
2022-07-29T17:08:22.963Z,34.27
2022-07-29T17:10:52.292Z,34.16
2022-07-29T17:13:20.392Z,33.97
2022-07-29T17:15:48.422Z,34.15
2022-07-29T17:18:16.282Z,34.35
2022-07-29T17:20:45.686Z,34.76
2022-07-29T17:23:13.445Z,35.05
2022-07-29T17:25:41.260Z,35.15
2022-07-29T17:28:09.102Z,35.63
2022-07-29T17:30:37.010Z,35.59
2022-07-29T17:33:04.866Z,35.81
2022-07-29T17:35:51.297Z,35.79
2022-07-29T17:38:19.052Z,35.83
2022-07-29T17:40:46.845Z,35.90
2022-07-29T17:43:14.729Z,35.94
2022-07-29T17:45:49.574Z,36.37
2022-07-29T17:48:22.806Z,36.33
2022-07-29T17:50:52.657Z,36.43
2022-07-29T17:53:20.454Z,36.39
2022-07-29T17:55:49.632Z,36.73
2022-07-29T17:58:17.628Z,36.79
2022-07-29T18:00:45.768Z,37.06
2022-07-29T18:03:14.113Z,37.02
2022-07-29T18:05:42.341Z,37.35
2022-07-29T18:08:10.837Z,37.41
2022-07-29T18:10:38.834Z,37.55
2022-07-29T18:13:07.354Z,37.80
2022-07-29T18:15:35.208Z,38.06
2022-07-29T18:18:03.189Z,38.29
2022-07-29T18:20:31.336Z,38.43
2022-07-29T18:22:59.672Z,38.55
2022-07-29T18:25:28.856Z,38.74
2022-07-29T18:28:00.355Z,39.02
2022-07-29T18:30:30.005Z,39.19
2022-07-29T18:33:23.142Z,39.37
2022-07-29T18:35:48.506Z,39.59
2022-07-29T18:38:16.983Z,39.94
2022-07-29T18:40:45.886Z,40.26
2022-07-29T18:43:14.075Z,40.58
2022-07-29T18:45:42.382Z,40.62
2022-07-29T18:48:12.986Z,40.84
2022-07-29T18:50:42.359Z,41.12
2022-07-29T18:53:10.240Z,41.45
2022-07-29T18:55:38.086Z,41.52
2022-07-29T18:58:06.051Z,41.57
2022-07-29T19:00:33.831Z,42.07
2022-07-29T19:03:03.272Z,42.00
2022-07-29T19:05:31.499Z,42.12
2022-07-29T19:07:59.670Z,42.29
2022-07-29T19:10:27.930Z,42.82
2022-07-29T19:12:58.106Z,42.96
2022-07-29T19:15:26.286Z,43.23
2022-07-29T19:18:00.946Z,43.18
2022-07-29T19:20:29.419Z,43.30
2022-07-29T19:22:57.427Z,43.61
2022-07-29T19:25:25.575Z,43.77
2022-07-29T19:27:53.441Z,43.97
2022-07-29T19:30:21.858Z,44.27
2022-07-29T19:32:52.141Z,44.77
2022-07-29T19:35:28.424Z,45.21
2022-07-29T19:37:58.916Z,45.50
2022-07-29T19:40:28.165Z,45.54
2022-07-29T19:42:56.426Z,45.51
2022-07-29T19:45:26.200Z,45.81
2022-07-29T19:48:00.696Z,45.85
2022-07-29T19:50:29.957Z,45.89
2022-07-29T19:53:01.402Z,45.97
2022-07-29T19:55:29.382Z,46.44
2022-07-29T19:57:59.245Z,46.89
2022-07-29T20:00:28.893Z,46.66
2022-07-29T20:02:58.928Z,47.17
2022-07-29T20:05:28.546Z,47.43
2022-07-29T20:07:56.963Z,47.36
2022-07-29T20:10:24.891Z,47.71
2022-07-29T20:12:53.760Z,47.69
2022-07-29T20:15:23.249Z,47.47
2022-07-29T20:17:56.616Z,47.65
2022-07-29T20:20:25.951Z,47.78
2022-07-29T20:22:54.495Z,48.10
2022-07-29T20:25:24.049Z,48.26
2022-07-29T20:27:55.107Z,48.14
2022-07-29T20:30:27.057Z,48.14
2022-07-29T20:32:55.588Z,48.05
2022-07-29T20:35:23.611Z,47.95
2022-07-29T20:37:56.127Z,48.17
2022-07-29T20:40:26.106Z,48.25
2022-07-29T20:43:02.440Z,48.27
2022-07-29T20:45:30.408Z,48.59
2022-07-29T20:47:58.459Z,48.75
2022-07-29T20:50:27.187Z,48.77
2022-07-29T20:52:54.988Z,48.44
2022-07-29T20:55:22.886Z,48.60
2022-07-29T20:57:50.678Z,48.74
2022-07-29T21:00:18.554Z,48.73
2022-07-29T21:02:46.651Z,48.93
2022-07-29T21:05:15.102Z,48.69
2022-07-29T21:07:42.884Z,48.86
2022-07-29T21:10:11.107Z,48.98
2022-07-29T21:12:38.985Z,49.38
2022-07-29T21:15:08.014Z,49.22
2022-07-29T21:17:36.188Z,49.35
2022-07-29T21:20:08.528Z,49.55
2022-07-29T21:22:36.458Z,50.11
2022-07-29T21:25:04.913Z,50.14
2022-07-29T21:27:51.221Z,50.25
2022-07-29T21:30:19.188Z,50.25
2022-07-29T21:32:47.141Z,50.52
2022-07-29T21:35:35.783Z,50.84
2022-07-29T21:38:02.859Z,50.94
2022-07-29T21:40:30.752Z,50.93
2022-07-29T21:42:58.666Z,51.32
2022-07-29T21:45:26.790Z,51.50
2022-07-29T21:47:54.586Z,51.66
2022-07-29T21:50:22.311Z,51.90
2022-07-29T21:52:50.067Z,52.21
2022-07-29T21:55:18.616Z,52.27
2022-07-29T21:57:47.260Z,52.53
2022-07-29T22:00:15.724Z,52.91
2022-07-29T22:02:43.725Z,53.23
2022-07-29T22:05:12.469Z,53.48
2022-07-29T22:07:54.532Z,53.50
2022-07-29T22:10:28.454Z,53.74
2022-07-29T22:12:59.044Z,53.91
2022-07-29T22:15:28.447Z,54.02
2022-07-29T22:17:58.317Z,54.12
2022-07-29T22:20:26.430Z,54.41
2022-07-29T22:22:54.803Z,54.51
2022-07-29T22:25:22.638Z,54.62
2022-07-29T22:27:50.889Z,54.81
2022-07-29T22:30:19.802Z,54.99
2022-07-29T22:32:49.507Z,54.91
2022-07-29T22:35:17.650Z,55.30
2022-07-29T22:37:45.530Z,55.42
2022-07-29T22:40:13.306Z,55.35
2022-07-29T22:42:41.145Z,55.51
2022-07-29T22:45:10.775Z,55.55
2022-07-29T22:47:48.019Z,55.53
2022-07-29T22:50:17.474Z,55.65
2022-07-29T22:52:46.156Z,55.85
2022-07-29T22:55:15.186Z,55.95
2022-07-29T22:57:43.079Z,56.09
2022-07-29T23:00:12.702Z,56.17
2022-07-29T23:02:41.450Z,56.35
2022-07-29T23:05:10.484Z,56.29
2022-07-29T23:07:38.611Z,56.37
2022-07-29T23:10:06.944Z,56.53
2022-07-29T23:12:34.895Z,56.41
2022-07-29T23:15:04.412Z,56.30
2022-07-29T23:17:36.239Z,56.16
2022-07-29T23:20:08.854Z,56.14
2022-07-29T23:22:37.836Z,56.21
2022-07-29T23:25:06.451Z,56.18
2022-07-29T23:27:34.205Z,56.23
2022-07-29T23:30:02.719Z,56.29
2022-07-29T23:32:30.619Z,56.42
2022-07-29T23:34:58.409Z,56.41
2022-07-29T23:37:26.890Z,56.48
2022-07-29T23:39:55.142Z,56.39
2022-07-29T23:42:23.129Z,56.15
2022-07-29T23:44:51.438Z,56.12
2022-07-29T23:47:19.218Z,56.46
2022-07-29T23:49:49.816Z,56.62
2022-07-29T23:52:17.726Z,56.93
2022-07-29T23:54:45.520Z,56.78
2022-07-29T23:57:13.649Z,56.59
2022-07-29T23:59:41.677Z,56.73
